createdAt,value
2018-07-03T00:01:20.875Z,100461.45
2018-07-03T00:03:51.535Z,100461.90
2018-07-03T00:06:22.249Z,100463.09
2018-07-03T00:08:52.903Z,100462.44
2018-07-03T00:11:23.601Z,100464.59
2018-07-03T00:13:54.105Z,100456.81
2018-07-03T00:16:29.759Z,100456.63
2018-07-03T00:19:00.452Z,100460.33
2018-07-03T00:21:31.148Z,100460.37
2018-07-03T00:24:01.824Z,100459.63
2018-07-03T00:26:32.456Z,100457.33
2018-07-03T00:29:03.098Z,100462.30
2018-07-03T00:31:33.775Z,100458.06
2018-07-03T00:34:04.459Z,100453.77
2018-07-03T00:36:35.151Z,100456.91
2018-07-03T00:39:08.873Z,100453.03
2018-07-03T00:41:39.528Z,100451.90
2018-07-03T00:44:10.189Z,100453.38
2018-07-03T00:46:40.487Z,100457.37
2018-07-03T00:49:11.007Z,100451.90
2018-07-03T00:51:41.672Z,100454.09
2018-07-03T00:54:12.452Z,100446.06
2018-07-03T00:56:43.143Z,100445.83
2018-07-03T00:59:13.780Z,100440.08
2018-07-03T01:01:44.480Z,100434.88
2018-07-03T01:04:15.167Z,100441.38
2018-07-03T01:06:45.868Z,100442.31
2018-07-03T01:09:16.520Z,100440.24
2018-07-03T01:11:47.270Z,100429.80
2018-07-03T01:14:17.955Z,100427.67
2018-07-03T01:16:48.604Z,100424.59
2018-07-03T01:19:19.423Z,100428.70
2018-07-03T01:21:50.096Z,100428.00
2018-07-03T01:24:20.746Z,100436.41
2018-07-03T01:26:51.486Z,100433.41
2018-07-03T01:29:22.180Z,100439.70
2018-07-03T01:31:52.824Z,100442.05
2018-07-03T01:34:23.485Z,100444.70
2018-07-03T01:36:54.151Z,100446.34
2018-07-03T01:39:24.911Z,100443.25
2018-07-03T01:41:55.558Z,100448.30
2018-07-03T01:44:26.248Z,100444.50
2018-07-03T01:46:56.876Z,100441.29
2018-07-03T01:49:27.548Z,100441.29
2018-07-03T01:51:58.178Z,100436.47
2018-07-03T01:54:28.836Z,100444.83
2018-07-03T01:56:59.599Z,100445.41
2018-07-03T01:59:30.284Z,100446.69
2018-07-03T02:02:00.908Z,100440.45
2018-07-03T02:04:31.590Z,100434.19
2018-07-03T02:07:02.242Z,100436.05
2018-07-03T02:09:32.947Z,100432.25
2018-07-03T02:12:03.647Z,100430.05
2018-07-03T02:14:34.299Z,100430.77
2018-07-03T02:17:05.248Z,100431.81
2018-07-03T02:19:35.975Z,100425.86
2018-07-03T02:22:06.720Z,100428.05
2018-07-03T02:24:37.379Z,100425.12
2018-07-03T02:27:08.086Z,100426.57
2018-07-03T02:29:38.818Z,100425.42
2018-07-03T02:32:09.464Z,100419.83
2018-07-03T02:34:40.151Z,100413.87
2018-07-03T02:37:10.767Z,100407.34
2018-07-03T02:39:41.436Z,100412.95
2018-07-03T02:42:12.141Z,100414.39
2018-07-03T02:44:42.859Z,100417.41
2018-07-03T02:47:13.533Z,100425.84
2018-07-03T02:49:44.202Z,100423.00
2018-07-03T02:52:14.892Z,100427.63
2018-07-03T02:54:45.561Z,100418.45
2018-07-03T02:57:16.243Z,100430.00
2018-07-03T02:59:46.935Z,100424.90
2018-07-03T03:02:17.621Z,100418.83
2018-07-03T03:04:48.382Z,100423.74
2018-07-03T03:07:19.084Z,100423.45
2018-07-03T03:09:49.708Z,100431.05
2018-07-03T03:12:20.408Z,100428.22
2018-07-03T03:14:51.126Z,100419.69
2018-07-03T03:17:21.794Z,100416.81
2018-07-03T03:19:52.458Z,100418.24
2018-07-03T03:22:23.224Z,100420.61
2018-07-03T03:24:53.888Z,100420.31
2018-07-03T03:27:24.550Z,100422.80
2018-07-03T03:29:55.217Z,100426.13
2018-07-03T03:32:25.859Z,100430.67
2018-07-03T03:34:56.619Z,100424.50
2018-07-03T03:37:27.310Z,100430.56
2018-07-03T03:39:58.024Z,100436.80
2018-07-03T03:42:28.693Z,100440.03
2018-07-03T03:44:59.400Z,100441.27
2018-07-03T03:47:30.061Z,100437.08
2018-07-03T03:50:00.728Z,100443.06
2018-07-03T03:52:31.393Z,100443.99
2018-07-03T03:55:02.047Z,100436.03
2018-07-03T03:57:32.739Z,100436.53
2018-07-03T04:00:03.631Z,100441.34
2018-07-03T04:02:34.293Z,100444.09
2018-07-03T04:05:05.088Z,100443.73
2018-07-03T04:07:35.839Z,100442.48
2018-07-03T04:10:06.587Z,100444.22
2018-07-03T04:12:36.950Z,100443.64
2018-07-03T04:15:07.540Z,100440.42
2018-07-03T04:17:38.192Z,100439.28
2018-07-03T04:20:11.825Z,100441.47
2018-07-03T04:22:42.448Z,100440.70
2018-07-03T04:25:13.096Z,100443.35
2018-07-03T04:27:43.747Z,100450.96
2018-07-03T04:30:44.941Z,100452.58
2018-07-03T04:33:15.614Z,100449.72
2018-07-03T04:35:46.300Z,100453.24
2018-07-03T04:38:16.928Z,100456.08
2018-07-03T04:40:47.609Z,100459.78
2018-07-03T04:43:18.507Z,100464.70
2018-07-03T04:45:49.224Z,100463.66
2018-07-03T04:48:19.905Z,100471.95
2018-07-03T04:50:50.592Z,100470.80
2018-07-03T04:53:21.361Z,100470.34
2018-07-03T04:55:52.016Z,100471.20
2018-07-03T04:58:22.726Z,100472.13
2018-07-03T05:00:53.379Z,100470.41
2018-07-03T05:03:24.076Z,100465.20
2018-07-03T05:06:25.954Z,100473.92
2018-07-03T05:08:56.647Z,100476.25
2018-07-03T05:11:27.347Z,100483.64
2018-07-03T05:13:58.013Z,100480.69
2018-07-03T05:16:28.695Z,100481.36
2018-07-03T05:18:59.380Z,100482.28
2018-07-03T05:21:30.058Z,100483.02
2018-07-03T05:24:00.679Z,100484.91
2018-07-03T05:27:02.167Z,100480.34
2018-07-03T05:29:39.576Z,100484.20
2018-07-03T05:32:10.667Z,100491.31
2018-07-03T05:34:41.355Z,100491.48
2018-07-03T05:37:12.076Z,100493.27
2018-07-03T05:39:42.751Z,100491.19
2018-07-03T05:42:13.421Z,100489.20
2018-07-03T05:44:44.109Z,100492.69
2018-07-03T05:47:14.857Z,100495.02
2018-07-03T05:49:45.611Z,100492.96
2018-07-03T05:52:16.344Z,100496.81
2018-07-03T05:54:47.003Z,100497.32
2018-07-03T05:57:17.700Z,100490.67
2018-07-03T05:59:48.470Z,100499.39
2018-07-03T06:02:19.206Z,100491.63
2018-07-03T06:04:49.848Z,100498.19
2018-07-03T06:07:20.573Z,100498.59
2018-07-03T06:09:51.263Z,100502.41
2018-07-03T06:12:22.156Z,100500.28
2018-07-03T06:14:53.812Z,100495.83
2018-07-03T06:17:24.643Z,100501.13
2018-07-03T06:19:55.227Z,100503.01
2018-07-03T06:22:25.928Z,100505.08
2018-07-03T06:24:56.600Z,100506.61
2018-07-03T06:27:27.277Z,100498.39
2018-07-03T06:29:58.040Z,100497.00
2018-07-03T06:32:28.713Z,100494.81
2018-07-03T06:34:59.370Z,100496.84
2018-07-03T06:37:30.154Z,100500.55
2018-07-03T06:40:00.862Z,100498.89
2018-07-03T06:42:31.548Z,100499.05
2018-07-03T06:45:02.323Z,100499.55
2018-07-03T06:47:33.012Z,100497.35
2018-07-03T06:50:03.752Z,100500.95
2018-07-03T06:52:34.393Z,100503.39
2018-07-03T06:55:05.149Z,100499.74
2018-07-03T06:57:35.867Z,100499.36
2018-07-03T07:00:07.667Z,100497.68
2018-07-03T07:02:38.409Z,100501.69
2018-07-03T07:05:09.073Z,100507.85
2018-07-03T07:07:39.754Z,100498.71
2018-07-03T07:10:10.491Z,100497.10
2018-07-03T07:12:41.184Z,100495.39
2018-07-03T07:15:11.908Z,100496.88
2018-07-03T07:17:42.587Z,100490.86
2018-07-03T07:20:13.296Z,100495.92
2018-07-03T07:22:43.924Z,100497.87
2018-07-03T07:25:14.605Z,100492.30
2018-07-03T07:27:45.290Z,100491.97
2018-07-03T07:30:15.998Z,100491.03
2018-07-03T07:32:46.745Z,100492.48
2018-07-03T07:35:17.463Z,100492.83
2018-07-03T07:37:48.112Z,100493.25
2018-07-03T07:40:18.816Z,100487.13
2018-07-03T07:42:49.518Z,100490.09
2018-07-03T07:45:20.219Z,100490.98
2018-07-03T07:47:50.853Z,100489.47
2018-07-03T07:50:21.528Z,100491.52
2018-07-03T07:52:52.217Z,100493.56
2018-07-03T07:55:22.877Z,100483.55
2018-07-03T07:57:53.724Z,100482.87
2018-07-03T08:00:24.388Z,100483.61
2018-07-03T08:02:55.075Z,100482.42
2018-07-03T08:05:25.754Z,100480.98
2018-07-03T08:07:56.450Z,100475.61
2018-07-03T08:10:27.133Z,100478.38
2018-07-03T08:12:57.788Z,100466.62
2018-07-03T08:15:28.508Z,100466.64
2018-07-03T08:17:59.189Z,100468.45
2018-07-03T08:20:29.858Z,100463.23
2018-07-03T08:23:00.517Z,100470.04
2018-07-03T08:25:31.218Z,100475.91
2018-07-03T08:28:01.887Z,100468.72
2018-07-03T08:30:32.497Z,100471.33
2018-07-03T08:33:03.176Z,100471.68
2018-07-03T08:35:33.873Z,100473.93
2018-07-03T08:38:04.601Z,100466.80
2018-07-03T08:40:35.288Z,100461.88
2018-07-03T08:43:06.453Z,100462.77
2018-07-03T08:45:37.209Z,100463.43
2018-07-03T08:48:08.058Z,100471.37
2018-07-03T08:50:38.713Z,100469.44
2018-07-03T08:53:09.404Z,100468.35
2018-07-03T08:55:40.855Z,100465.61
2018-07-03T08:58:11.641Z,100468.12
2018-07-03T09:00:42.283Z,100463.02
2018-07-03T09:03:12.984Z,100461.45
2018-07-03T09:05:43.653Z,100461.56
2018-07-03T09:08:14.353Z,100469.89
2018-07-03T09:10:45.097Z,100467.72
2018-07-03T09:13:15.767Z,100472.31
2018-07-03T09:15:46.450Z,100464.79
2018-07-03T09:18:17.136Z,100470.89
2018-07-03T09:20:47.830Z,100468.59
2018-07-03T09:23:18.540Z,100460.41
2018-07-03T09:25:49.303Z,100454.70
2018-07-03T09:28:19.968Z,100450.33
2018-07-03T09:30:50.631Z,100445.38
2018-07-03T09:33:21.328Z,100451.72
2018-07-03T09:35:52.036Z,100451.62
2018-07-03T09:38:22.774Z,100449.35
2018-07-03T09:41:08.034Z,100452.84
2018-07-03T09:43:38.731Z,100444.91
2018-07-03T09:46:09.441Z,100439.50
2018-07-03T09:48:40.127Z,100439.33
2018-07-03T09:51:10.863Z,100443.77
2018-07-03T09:53:41.858Z,100438.61
2018-07-03T09:56:18.825Z,100436.45
2018-07-03T09:58:49.493Z,100437.98
2018-07-03T10:01:21.102Z,100440.92
2018-07-03T10:03:51.787Z,100443.38
2018-07-03T10:06:22.508Z,100438.95
2018-07-03T10:08:53.157Z,100440.59
2018-07-03T10:11:23.834Z,100438.38
2018-07-03T10:13:54.915Z,100443.72
2018-07-03T10:16:25.604Z,100437.88
2018-07-03T10:18:56.317Z,100443.05
2018-07-03T10:21:27.003Z,100447.88
2018-07-03T10:23:57.668Z,100443.91
2018-07-03T10:26:28.428Z,100437.98
2018-07-03T10:28:59.524Z,100437.01
2018-07-03T10:31:30.562Z,100444.84
2018-07-03T10:34:01.267Z,100439.95
2018-07-03T10:36:31.944Z,100437.58
2018-07-03T10:39:02.739Z,100434.69
2018-07-03T10:41:33.419Z,100432.28
2018-07-03T10:44:04.300Z,100425.38
2018-07-03T10:46:34.977Z,100429.55
2018-07-03T10:49:05.720Z,100419.37
2018-07-03T10:51:36.435Z,100418.12
2018-07-03T10:54:07.202Z,100419.47
2018-07-03T10:56:37.866Z,100419.07
2018-07-03T10:59:08.607Z,100405.97
2018-07-03T11:01:39.304Z,100414.63
2018-07-03T11:04:10.044Z,100408.89
2018-07-03T11:06:40.751Z,100402.77
2018-07-03T11:09:12.612Z,100404.88
2018-07-03T11:11:43.339Z,100407.81
2018-07-03T11:14:14.040Z,100405.97
2018-07-03T11:16:44.856Z,100410.84
2018-07-03T11:19:15.516Z,100408.42
2018-07-03T11:21:46.253Z,100414.25
2018-07-03T11:24:16.989Z,100409.92
2018-07-03T11:26:47.728Z,100404.44
2018-07-03T11:29:18.470Z,100408.77
2018-07-03T11:31:49.239Z,100406.97
2018-07-03T11:34:19.954Z,100399.95
2018-07-03T11:36:50.640Z,100395.95
2018-07-03T11:39:21.339Z,100399.20
2018-07-03T11:41:52.044Z,100390.02
2018-07-03T11:44:22.761Z,100394.93
2018-07-03T11:46:53.464Z,100389.86
2018-07-03T11:49:24.205Z,100382.00
2018-07-03T11:51:54.915Z,100383.07
2018-07-03T11:54:25.640Z,100382.00
2018-07-03T11:56:56.358Z,100379.63
2018-07-03T11:59:27.055Z,100388.09
2018-07-03T12:02:28.823Z,100374.28
2018-07-03T12:04:59.509Z,100370.50
2018-07-03T12:07:30.244Z,100375.31
2018-07-03T12:10:00.942Z,100366.84
2018-07-03T12:12:31.625Z,100375.34
2018-07-03T12:15:02.361Z,100365.66
2018-07-03T12:17:33.045Z,100372.53
2018-07-03T12:20:03.851Z,100369.23
2018-07-03T12:22:34.532Z,100365.84
2018-07-03T12:25:05.685Z,100361.31
2018-07-03T12:27:36.400Z,100359.17
2018-07-03T12:30:11.728Z,100360.86
2018-07-03T12:32:42.403Z,100356.70
2018-07-03T12:35:13.069Z,100355.13
2018-07-03T12:37:43.735Z,100353.53
2018-07-03T12:40:14.467Z,100353.97
2018-07-03T12:42:45.179Z,100354.07
2018-07-03T12:45:15.860Z,100356.52
2018-07-03T12:47:46.584Z,100346.36
2018-07-03T12:50:17.320Z,100351.35
2018-07-03T12:52:48.024Z,100345.29
2018-07-03T12:55:18.773Z,100340.12
2018-07-03T12:57:49.488Z,100343.69
2018-07-03T13:00:20.277Z,100335.98
2018-07-03T13:02:51.003Z,100340.39
2018-07-03T13:05:21.739Z,100337.85
2018-07-03T13:07:52.509Z,100338.42
2018-07-03T13:10:23.263Z,100327.98
2018-07-03T13:12:54.254Z,100332.75
2018-07-03T13:15:25.595Z,100326.87
2018-07-03T13:17:56.240Z,100335.14
2018-07-03T13:20:26.869Z,100332.70
2018-07-03T13:22:57.630Z,100326.27
2018-07-03T13:25:28.303Z,100317.42
2018-07-03T13:27:58.939Z,100322.07
2018-07-03T13:30:29.612Z,100316.77
2018-07-03T13:33:00.352Z,100315.03
2018-07-03T13:35:31.045Z,100316.05
2018-07-03T13:38:01.732Z,100312.81
2018-07-03T13:40:32.464Z,100315.09
2018-07-03T13:43:03.145Z,100310.00
2018-07-03T13:45:33.834Z,100314.67
2018-07-03T13:48:04.777Z,100312.23
2018-07-03T13:50:35.483Z,100313.53
2018-07-03T13:53:06.236Z,100308.54
2018-07-03T13:55:36.927Z,100301.20
2018-07-03T13:58:08.216Z,100302.20
2018-07-03T14:00:38.931Z,100302.45
2018-07-03T14:03:09.588Z,100297.02
2018-07-03T14:05:40.337Z,100296.83
2018-07-03T14:08:11.166Z,100296.38
2018-07-03T14:10:41.839Z,100297.23
2018-07-03T14:13:12.460Z,100292.62
2018-07-03T14:15:43.200Z,100293.52
2018-07-03T14:18:13.871Z,100299.45
2018-07-03T14:20:44.528Z,100292.40
2018-07-03T14:23:15.139Z,100291.16
2018-07-03T14:25:45.814Z,100283.04
2018-07-03T14:28:16.585Z,100281.59
2018-07-03T14:30:47.270Z,100282.66
2018-07-03T14:33:17.992Z,100275.45
2018-07-03T14:35:48.733Z,100268.49
2018-07-03T14:38:19.362Z,100272.04
2018-07-03T14:40:50.047Z,100276.17
2018-07-03T14:43:20.845Z,100268.55
2018-07-03T14:45:51.605Z,100269.17
2018-07-03T14:48:22.278Z,100266.91
2018-07-03T14:50:52.973Z,100258.67
2018-07-03T14:53:23.647Z,100259.50
2018-07-03T14:55:54.347Z,100259.04
2018-07-03T14:58:25.024Z,100261.41
2018-07-03T15:00:55.712Z,100262.50
2018-07-03T15:03:26.328Z,100259.50
2018-07-03T15:05:56.985Z,100260.75
2018-07-03T15:08:27.653Z,100253.64
2018-07-03T15:10:58.364Z,100251.61
2018-07-03T15:13:28.712Z,100253.48
2018-07-03T15:15:59.272Z,100250.77
2018-07-03T15:18:35.169Z,100246.86
2018-07-03T15:21:05.865Z,100243.45
2018-07-03T15:23:36.494Z,100245.88
2018-07-03T15:26:07.302Z,100237.69
2018-07-03T15:28:37.945Z,100239.57
2018-07-03T15:31:08.614Z,100240.63
2018-07-03T15:33:39.282Z,100231.62
2018-07-03T15:36:09.995Z,100227.92
2018-07-03T15:38:40.699Z,100225.15
2018-07-03T15:41:11.348Z,100226.07
2018-07-03T15:43:53.635Z,100221.08
2018-07-03T15:46:24.321Z,100226.86
2018-07-03T15:48:54.901Z,100218.69
2018-07-03T15:51:25.421Z,100220.84
2018-07-03T15:53:56.125Z,100219.52
2018-07-03T15:56:26.854Z,100217.30
2018-07-03T15:58:57.558Z,100216.77
2018-07-03T16:01:28.330Z,100218.00
2018-07-03T16:04:16.538Z,100219.59
2018-07-03T16:07:08.560Z,100218.55
2018-07-03T16:09:39.261Z,100214.20
2018-07-03T16:12:09.929Z,100209.94
2018-07-03T16:14:40.595Z,100205.34
2018-07-03T16:17:11.294Z,100208.20
2018-07-03T16:19:47.315Z,100209.24
2018-07-03T16:22:17.985Z,100202.81
2018-07-03T16:24:48.751Z,100196.17
2018-07-03T16:27:19.364Z,100194.33
2018-07-03T16:29:50.034Z,100194.06
2018-07-03T16:32:20.692Z,100192.51
2018-07-03T16:34:51.380Z,100187.00
2018-07-03T16:37:22.060Z,100195.23
2018-07-03T16:39:52.953Z,100190.78
2018-07-03T16:42:23.587Z,100188.97
2018-07-03T16:44:54.321Z,100190.55
2018-07-03T16:47:24.969Z,100186.19
2018-07-03T16:49:55.698Z,100192.19
2018-07-03T16:52:26.389Z,100188.66
2018-07-03T16:54:57.044Z,100183.64
2018-07-03T16:57:27.775Z,100184.62
2018-07-03T16:59:58.454Z,100181.80
2018-07-03T17:02:29.097Z,100183.36
2018-07-03T17:04:59.739Z,100178.56
2018-07-03T17:07:30.496Z,100179.58
2018-07-03T17:10:01.221Z,100179.80
2018-07-03T17:12:31.894Z,100177.58
2018-07-03T17:15:02.584Z,100181.45
2018-07-03T17:17:33.256Z,100182.59
2018-07-03T17:20:03.988Z,100184.17
2018-07-03T17:22:34.671Z,100181.20
2018-07-03T17:25:05.903Z,100179.42
2018-07-03T17:27:36.533Z,100180.19
2018-07-03T17:30:07.341Z,100175.98
2018-07-03T17:32:38.060Z,100175.23
2018-07-03T17:35:08.751Z,100171.03
2018-07-03T17:37:39.420Z,100172.65
2018-07-03T17:40:27.055Z,100166.88
2018-07-03T17:44:20.450Z,100167.09
2018-07-03T17:46:51.140Z,100161.93
2018-07-03T17:49:21.832Z,100161.56
2018-07-03T17:51:52.542Z,100163.10
2018-07-03T17:54:23.207Z,100160.65
2018-07-03T17:56:53.865Z,100154.66
2018-07-03T17:59:24.610Z,100155.98
2018-07-03T18:01:55.319Z,100156.80
2018-07-03T18:04:25.957Z,100149.49
2018-07-03T18:06:56.622Z,100157.80
2018-07-03T18:09:27.328Z,100155.39
2018-07-03T18:11:57.996Z,100153.91
2018-07-03T18:14:28.682Z,100153.99
2018-07-03T18:16:59.325Z,100146.29
2018-07-03T18:19:35.189Z,100151.86
2018-07-03T18:22:05.910Z,100154.23
2018-07-03T18:24:36.617Z,100156.44
2018-07-03T18:27:07.310Z,100156.56
2018-07-03T18:29:37.994Z,100161.55
2018-07-03T18:32:08.676Z,100158.75
2018-07-03T18:34:39.500Z,100158.67
2018-07-03T18:37:10.167Z,100156.81
2018-07-03T18:39:40.846Z,100157.63
2018-07-03T18:42:11.507Z,100161.09
2018-07-03T18:44:42.174Z,100168.28
2018-07-03T18:47:12.872Z,100170.45
2018-07-03T18:49:43.548Z,100164.23
2018-07-03T18:52:13.936Z,100163.84
2018-07-03T18:54:44.441Z,100166.80
2018-07-03T18:57:15.144Z,100163.48
2018-07-03T18:59:45.945Z,100173.56
2018-07-03T19:02:16.663Z,100175.47
2018-07-03T19:04:47.335Z,100177.58
2018-07-03T19:07:17.987Z,100180.55
2018-07-03T19:09:48.663Z,100183.14
2018-07-03T19:12:19.369Z,100191.50
2018-07-03T19:14:50.087Z,100190.24
2018-07-03T19:17:20.812Z,100183.48
2018-07-03T19:19:51.480Z,100193.04
2018-07-03T19:22:22.201Z,100188.72
2018-07-03T19:24:52.912Z,100197.05
2018-07-03T19:27:23.610Z,100200.45
2018-07-03T19:29:54.339Z,100200.18
2018-07-03T19:32:25.011Z,100197.64
2018-07-03T19:34:55.676Z,100198.02
2018-07-03T19:37:26.415Z,100196.00
2018-07-03T19:39:57.076Z,100199.92
2018-07-03T19:42:27.827Z,100197.58
2018-07-03T19:44:58.464Z,100197.43
2018-07-03T19:47:29.108Z,100196.56
2018-07-03T19:49:59.760Z,100199.79
2018-07-03T19:52:30.477Z,100204.00
2018-07-03T19:55:01.151Z,100203.48
2018-07-03T19:57:31.818Z,100205.34
2018-07-03T20:00:02.502Z,100205.84
2018-07-03T20:02:33.185Z,100209.04
2018-07-03T20:05:03.866Z,100206.48
2018-07-03T20:07:34.560Z,100204.57
2018-07-03T20:10:05.339Z,100214.67
2018-07-03T20:12:36.036Z,100217.36
2018-07-03T20:15:06.775Z,100215.66
2018-07-03T20:17:37.463Z,100212.27
2018-07-03T20:20:08.355Z,100209.70
2018-07-03T20:22:39.017Z,100214.91
2018-07-03T20:25:09.744Z,100208.64
2018-07-03T20:27:40.455Z,100212.00
2018-07-03T20:30:11.123Z,100209.92
2018-07-03T20:32:41.783Z,100212.41
2018-07-03T20:35:12.437Z,100214.56
2018-07-03T20:38:07.203Z,100223.48
2018-07-03T20:41:10.328Z,100222.08
2018-07-03T20:43:42.169Z,100221.68
2018-07-03T20:46:12.880Z,100223.65
2018-07-03T20:48:43.551Z,100227.50
2018-07-03T20:51:14.252Z,100229.12
2018-07-03T20:53:44.932Z,100233.31
2018-07-03T20:56:15.611Z,100228.39
2018-07-03T20:58:46.255Z,100241.97
2018-07-03T21:01:16.956Z,100238.89
2018-07-03T21:03:47.833Z,100244.24
2018-07-03T21:06:18.579Z,100240.02
2018-07-03T21:08:49.152Z,100231.88
2018-07-03T21:11:19.839Z,100240.38
2018-07-03T21:13:50.553Z,100240.03
2018-07-03T21:16:21.230Z,100235.77
2018-07-03T21:18:51.864Z,100235.53
2018-07-03T21:21:37.301Z,100234.94
2018-07-03T21:24:08.119Z,100242.78
2018-07-03T21:26:38.748Z,100244.91
2018-07-03T21:29:09.446Z,100250.41
2018-07-03T21:31:40.171Z,100247.55
2018-07-03T21:34:10.752Z,100255.24
2018-07-03T21:36:41.488Z,100254.34
2018-07-03T21:39:12.288Z,100252.52
2018-07-03T21:41:42.931Z,100258.45
2018-07-03T21:44:13.719Z,100254.70
2018-07-03T21:46:44.347Z,100258.55
2018-07-03T21:49:15.088Z,100257.45
2018-07-03T21:51:45.781Z,100259.23
2018-07-03T21:54:16.925Z,100252.83
2018-07-03T21:56:47.557Z,100252.98
2018-07-03T21:59:18.229Z,100248.38
2018-07-03T22:01:48.903Z,100246.98
2018-07-03T22:04:25.681Z,100252.14
2018-07-03T22:06:56.879Z,100254.07
2018-07-03T22:09:27.567Z,100251.55
2018-07-03T22:11:58.318Z,100256.55
2018-07-03T22:14:28.872Z,100256.16
2018-07-03T22:16:59.571Z,100262.81
2018-07-03T22:19:30.188Z,100274.74
2018-07-03T22:22:00.893Z,100257.87
2018-07-03T22:24:31.764Z,100253.64
2018-07-03T22:27:02.449Z,100255.19
2018-07-03T22:29:33.146Z,100258.30
2018-07-03T22:32:03.856Z,100256.95
2018-07-03T22:34:34.531Z,100259.09
2018-07-03T22:37:05.270Z,100258.29
2018-07-03T22:39:36.024Z,100260.25
2018-07-03T22:42:06.652Z,100261.43
2018-07-03T22:44:37.339Z,100257.00
2018-07-03T22:47:07.996Z,100257.42
2018-07-03T22:49:38.687Z,100262.08
2018-07-03T22:52:09.339Z,100260.71
2018-07-03T22:54:40.010Z,100259.08
2018-07-03T22:57:10.702Z,100256.44
2018-07-03T22:59:41.399Z,100258.48
2018-07-03T23:02:12.100Z,100255.84
2018-07-03T23:04:42.743Z,100251.00
2018-07-03T23:07:13.412Z,100241.33
2018-07-03T23:09:44.061Z,100242.11
2018-07-03T23:12:20.570Z,100247.17
2018-07-03T23:14:52.102Z,100245.13
2018-07-03T23:17:22.770Z,100251.12
2018-07-03T23:19:53.407Z,100248.81
2018-07-03T23:22:24.083Z,100250.11
2018-07-03T23:24:54.730Z,100256.49
2018-07-03T23:27:25.432Z,100257.38
2018-07-03T23:29:56.119Z,100249.64
2018-07-03T23:32:26.760Z,100253.51
2018-07-03T23:34:57.432Z,100259.60
2018-07-03T23:37:28.099Z,100266.59
2018-07-03T23:39:58.814Z,100262.11
2018-07-03T23:42:29.500Z,100255.70
2018-07-03T23:45:00.125Z,100257.39
2018-07-03T23:47:47.784Z,100261.17
2018-07-03T23:50:35.041Z,100259.38
2018-07-03T23:53:22.563Z,100262.83
2018-07-03T23:56:10.148Z,100256.30
2018-07-03T23:58:57.546Z,100260.94
